FAMM/MBD METAR and TAF weather

Enter ICAO airport designator
Station Type Date Time Source
FAMM METAR 2024/05/28 23:00 UTC NOAA

FAMM 282300Z AUTO 05005KT //// // ////// 08/02 Q1028


Station Type Date Time Source
FAMM Decoded METAR 2024/05/28 23:00 UTC NOAA

Mafikeng Intl. Ad, South Africa (FAMM) 25-47S 025-32E 1300M
May 28, 2024 - 07:00 PM EDT / 2024.05.28 2300 UTC
Wind: from the NE (050 degrees) at 6 MPH (5 KT):0
Temperature: 46 F (8 C)
Dew Point: 35 F (2 C)
Relative Humidity: 65%
Pressure (altimeter): 30.36 in. Hg (1028 hPa)
ob: FAMM 282300Z AUTO 05005KT //// // ////// 08/02 Q1028
cycle: 23

Station Type Date Time Source
FAMM TAF 2021/06/04 04:45 UTC NOAA